createdAt,value
2018-07-17T00:01:52.936Z,2.93
2018-07-17T00:04:21.302Z,3.60
2018-07-17T00:06:49.794Z,3.23
2018-07-17T00:09:18.367Z,3.23
2018-07-17T00:11:46.823Z,3.53
2018-07-17T00:14:16.762Z,3.23
2018-07-17T00:16:45.350Z,3.90
2018-07-17T00:19:13.857Z,3.53
2018-07-17T00:21:42.266Z,3.83
2018-07-17T00:24:10.726Z,3.13
2018-07-17T00:26:39.529Z,3.53
2018-07-17T00:29:07.895Z,4.00
2018-07-17T00:31:36.439Z,3.93
2018-07-17T00:34:04.920Z,4.40
2018-07-17T00:36:33.365Z,3.53
2018-07-17T00:39:02.084Z,3.50
2018-07-17T00:41:30.549Z,3.63
2018-07-17T00:43:58.899Z,3.50
2018-07-17T00:46:27.194Z,3.03
2018-07-17T00:48:55.508Z,3.60
2018-07-17T00:51:23.858Z,3.60
2018-07-17T00:53:52.177Z,2.73
2018-07-17T00:56:20.629Z,3.40
2018-07-17T00:58:48.965Z,3.13
2018-07-17T01:01:22.583Z,3.87
2018-07-17T01:03:56.341Z,3.43
2018-07-17T01:06:30.190Z,3.40
2018-07-17T01:09:03.765Z,3.50
2018-07-17T01:11:37.410Z,3.70
2018-07-17T01:14:11.088Z,3.80
2018-07-17T01:16:39.451Z,4.00
2018-07-17T01:19:07.802Z,3.27
2018-07-17T01:21:36.191Z,4.00
2018-07-17T01:24:04.513Z,4.60
2018-07-17T01:26:32.941Z,3.80
2018-07-17T01:29:01.264Z,3.83
2018-07-17T01:31:29.750Z,3.93
2018-07-17T01:33:58.140Z,3.97
2018-07-17T01:36:26.450Z,4.30
2018-07-17T01:38:54.781Z,4.17
2018-07-17T01:41:23.100Z,4.77
2018-07-17T01:43:51.420Z,5.07
2018-07-17T01:46:19.716Z,4.50
2018-07-17T01:48:48.064Z,4.70
2018-07-17T01:51:16.576Z,4.60
2018-07-17T01:53:44.989Z,5.30
2018-07-17T01:56:13.323Z,5.40
2018-07-17T01:58:41.630Z,4.97
2018-07-17T02:01:09.936Z,5.40
2018-07-17T02:03:38.296Z,5.30
2018-07-17T02:06:06.641Z,4.87
2018-07-17T02:08:34.937Z,4.70
2018-07-17T02:11:03.273Z,5.07
2018-07-17T02:13:31.592Z,5.23
2018-07-17T02:15:59.931Z,5.27
2018-07-17T02:18:28.262Z,5.23
2018-07-17T02:20:56.652Z,4.50
2018-07-17T02:23:25.011Z,5.07
2018-07-17T02:25:53.326Z,4.20
2018-07-17T02:28:21.671Z,5.13
2018-07-17T02:30:50.016Z,4.40
2018-07-17T02:33:18.518Z,4.73
2018-07-17T02:35:46.855Z,4.03
2018-07-17T02:38:15.198Z,4.17
2018-07-17T02:40:43.533Z,4.27
2018-07-17T02:43:11.869Z,5.67
2018-07-17T02:45:40.219Z,4.70
2018-07-17T02:48:08.613Z,5.07
2018-07-17T02:50:36.971Z,4.93
2018-07-17T02:53:05.315Z,4.37
2018-07-17T02:55:33.605Z,4.83
2018-07-17T02:58:01.921Z,4.00
2018-07-17T03:00:30.225Z,5.00
2018-07-17T03:02:58.532Z,4.17
2018-07-17T03:05:26.975Z,4.63
2018-07-17T03:07:55.314Z,4.30
2018-07-17T03:10:23.625Z,4.80
2018-07-17T03:12:52.071Z,4.37
2018-07-17T03:15:20.428Z,5.03
2018-07-17T03:17:48.933Z,4.63
2018-07-17T03:20:17.317Z,4.73
2018-07-17T03:22:47.779Z,4.80
2018-07-17T03:25:16.197Z,4.73
2018-07-17T03:27:45.078Z,4.90
2018-07-17T03:30:13.411Z,4.30
2018-07-17T03:32:41.773Z,5.07
2018-07-17T03:35:10.103Z,4.60
2018-07-17T03:37:38.426Z,4.87
2018-07-17T03:40:06.841Z,4.60
2018-07-17T03:42:35.157Z,4.77
2018-07-17T03:45:03.498Z,4.50
2018-07-17T03:47:31.875Z,5.20
2018-07-17T03:50:00.224Z,4.90
2018-07-17T03:52:28.602Z,4.83
2018-07-17T03:54:56.998Z,4.57
2018-07-17T03:57:25.319Z,5.13
2018-07-17T03:59:53.645Z,4.60
2018-07-17T04:02:21.967Z,4.40
2018-07-17T04:04:50.269Z,4.57
2018-07-17T04:07:18.589Z,4.97
2018-07-17T04:09:46.934Z,5.03
2018-07-17T04:12:15.261Z,4.73
2018-07-17T04:14:43.989Z,4.23
2018-07-17T04:17:12.425Z,7.40
2018-07-17T04:19:42.086Z,7.33
2018-07-17T04:22:10.490Z,5.50
2018-07-17T04:24:38.843Z,4.77
2018-07-17T04:27:07.204Z,4.73
2018-07-17T04:29:35.574Z,5.40
2018-07-17T04:32:04.030Z,4.23
2018-07-17T04:34:32.370Z,5.10
2018-07-17T04:37:00.997Z,4.83
2018-07-17T04:39:29.314Z,5.20
2018-07-17T04:41:57.729Z,4.07
2018-07-17T04:44:26.112Z,5.10
2018-07-17T04:46:54.442Z,5.73
2018-07-17T04:49:23.141Z,5.17
2018-07-17T04:51:51.577Z,4.70
2018-07-17T04:54:19.956Z,4.13
2018-07-17T04:56:48.259Z,4.50
2018-07-17T04:59:16.570Z,5.03
2018-07-17T05:01:45.003Z,4.87
2018-07-17T05:04:13.407Z,4.97
2018-07-17T05:06:47.622Z,4.10
2018-07-17T05:09:15.968Z,4.10
2018-07-17T05:11:44.282Z,5.53
2018-07-17T05:14:12.592Z,5.10
2018-07-17T05:16:41.036Z,4.50
2018-07-17T05:19:09.375Z,4.53
2018-07-17T05:21:39.906Z,4.60
2018-07-17T05:24:08.265Z,5.03
2018-07-17T05:26:39.635Z,4.97
2018-07-17T05:29:07.962Z,5.20
2018-07-17T05:31:40.120Z,5.10
2018-07-17T05:34:08.442Z,4.50
2018-07-17T05:36:37.576Z,4.80
2018-07-17T05:39:07.571Z,4.97
2018-07-17T05:41:36.876Z,5.40
2018-07-17T05:44:05.301Z,5.10
2018-07-17T05:46:33.758Z,4.77
2018-07-17T05:49:02.273Z,5.83
2018-07-17T05:51:30.703Z,4.63
2018-07-17T05:53:59.046Z,4.80
2018-07-17T05:56:27.391Z,5.40
2018-07-17T05:58:55.865Z,5.63
2018-07-17T06:01:24.451Z,5.50
2018-07-17T06:03:52.793Z,5.70
2018-07-17T06:06:21.535Z,5.50
2018-07-17T06:08:50.702Z,5.90
2018-07-17T06:11:19.204Z,6.43
2018-07-17T06:13:48.835Z,5.50
2018-07-17T06:16:17.277Z,5.60
2018-07-17T06:18:45.643Z,5.50
2018-07-17T06:21:13.981Z,5.90
2018-07-17T06:23:42.408Z,5.70
2018-07-17T06:26:10.984Z,6.30
2018-07-17T06:28:39.303Z,5.60
2018-07-17T06:31:07.638Z,5.30
2018-07-17T06:33:36.032Z,6.00
2018-07-17T06:36:04.430Z,6.50
2018-07-17T06:38:32.857Z,6.40
2018-07-17T06:41:01.296Z,6.40
2018-07-17T06:43:30.201Z,6.30
2018-07-17T06:45:59.160Z,6.13
2018-07-17T06:48:27.725Z,6.50
2018-07-17T06:50:56.123Z,6.93
2018-07-17T06:53:24.485Z,8.13
2018-07-17T06:55:52.883Z,7.93
2018-07-17T06:58:21.356Z,7.83
2018-07-17T07:00:49.822Z,6.63
2018-07-17T07:03:18.231Z,7.23
2018-07-17T07:05:46.689Z,7.83
2018-07-17T07:08:15.006Z,7.47
2018-07-17T07:10:43.361Z,7.30
2018-07-17T07:13:12.144Z,7.27
2018-07-17T07:15:40.508Z,5.93
2018-07-17T07:18:09.765Z,6.77
2018-07-17T07:20:38.241Z,6.27
2018-07-17T07:23:06.973Z,6.40
2018-07-17T07:25:35.522Z,6.43
2018-07-17T07:28:03.934Z,5.70
2018-07-17T07:30:32.347Z,7.10
2018-07-17T07:33:00.837Z,5.90
2018-07-17T07:35:29.255Z,7.30
2018-07-17T07:37:57.625Z,8.10
2018-07-17T07:40:26.011Z,8.53
2018-07-17T07:42:54.457Z,7.83
2018-07-17T07:45:22.687Z,7.57
2018-07-17T07:47:52.888Z,7.23
2018-07-17T07:50:21.267Z,7.43
2018-07-17T07:52:50.130Z,7.67
2018-07-17T07:55:18.599Z,6.67
2018-07-17T07:57:47.401Z,7.10
2018-07-17T08:00:15.838Z,6.77
2018-07-17T08:02:44.454Z,6.93
2018-07-17T08:05:13.032Z,8.70
2018-07-17T08:07:41.557Z,7.50
2018-07-17T08:10:10.713Z,7.57
2018-07-17T08:12:39.320Z,7.23
2018-07-17T08:15:08.026Z,7.80
2018-07-17T08:17:38.248Z,7.50
2018-07-17T08:20:06.764Z,7.47
2018-07-17T08:22:35.410Z,7.27
2018-07-17T08:25:04.104Z,7.00
2018-07-17T08:27:32.792Z,7.90
2018-07-17T08:30:01.167Z,7.50
2018-07-17T08:32:29.525Z,7.53
2018-07-17T08:34:57.989Z,9.03
2018-07-17T08:37:26.394Z,9.03
2018-07-17T08:39:54.690Z,7.83
2018-07-17T08:42:23.035Z,9.10
2018-07-17T08:44:51.422Z,9.50
2018-07-17T08:47:19.765Z,7.77
2018-07-17T08:49:48.096Z,8.47
2018-07-17T08:52:16.424Z,8.20
2018-07-17T08:54:44.753Z,7.53
2018-07-17T08:57:13.098Z,8.43
2018-07-17T08:59:41.657Z,7.87
2018-07-17T09:02:10.142Z,8.10
2018-07-17T09:04:38.563Z,7.97
2018-07-17T09:07:06.885Z,6.60
2018-07-17T09:09:35.192Z,8.27
2018-07-17T09:12:03.610Z,9.00
2018-07-17T09:14:31.963Z,8.70
2018-07-17T09:17:00.300Z,9.50
2018-07-17T09:19:28.621Z,8.20
2018-07-17T09:21:57.100Z,8.53
2018-07-17T09:24:25.478Z,9.50
2018-07-17T09:26:54.297Z,8.83
2018-07-17T09:29:22.651Z,8.87
2018-07-17T09:31:50.701Z,7.50
2018-07-17T09:34:19.032Z,9.07
2018-07-17T09:36:47.758Z,9.13
2018-07-17T09:39:16.102Z,8.40
2018-07-17T09:41:44.404Z,8.47
2018-07-17T09:44:12.742Z,9.00
2018-07-17T09:46:41.169Z,8.80
2018-07-17T09:49:11.082Z,9.03
2018-07-17T09:51:39.516Z,8.60
2018-07-17T09:54:07.993Z,7.80
2018-07-17T09:56:36.493Z,8.07
2018-07-17T09:59:04.905Z,8.03
2018-07-17T10:01:38.702Z,7.23
2018-07-17T10:04:07.055Z,6.80
2018-07-17T10:06:35.980Z,5.60
2018-07-17T10:09:05.526Z,5.20
2018-07-17T10:11:33.918Z,3.80
2018-07-17T10:14:04.498Z,3.97
2018-07-17T10:16:33.226Z,4.40
2018-07-17T10:19:01.796Z,4.53
2018-07-17T10:21:30.293Z,4.53
2018-07-17T10:23:58.745Z,5.07
2018-07-17T10:26:27.360Z,4.73
2018-07-17T10:28:55.585Z,4.27
2018-07-17T10:31:25.041Z,4.20
2018-07-17T10:33:53.401Z,4.60
2018-07-17T10:36:21.745Z,6.03
2018-07-17T10:38:50.077Z,4.60
2018-07-17T10:41:18.505Z,5.53
2018-07-17T10:43:46.858Z,4.33
2018-07-17T10:46:15.897Z,4.20
2018-07-17T10:48:44.234Z,4.43
2018-07-17T10:51:12.589Z,3.80
2018-07-17T10:53:40.977Z,3.73
2018-07-17T10:56:09.633Z,4.33
2018-07-17T10:58:38.052Z,3.13
2018-07-17T11:01:07.084Z,2.73
2018-07-17T11:03:35.880Z,2.37
2018-07-17T11:06:04.254Z,1.87
2018-07-17T11:08:32.804Z,1.40
2018-07-17T11:11:01.631Z,1.87
2018-07-17T11:13:30.181Z,1.83
2018-07-17T11:15:58.631Z,1.97
2018-07-17T11:18:27.102Z,2.80
2018-07-17T11:20:56.247Z,2.63
2018-07-17T11:23:24.708Z,2.77
2018-07-17T11:25:55.954Z,2.67
2018-07-17T11:28:24.682Z,2.10
2018-07-17T11:30:54.932Z,2.63
2018-07-17T11:33:23.841Z,2.30
2018-07-17T11:35:55.006Z,2.20
2018-07-17T11:38:24.466Z,2.67
2018-07-17T11:41:02.801Z,2.40
2018-07-17T11:43:41.630Z,2.37
2018-07-17T11:46:20.173Z,3.30
2018-07-17T11:48:56.727Z,2.03
2018-07-17T11:51:30.309Z,2.40
2018-07-17T11:54:05.990Z,1.80
2018-07-17T11:56:41.987Z,1.83
2018-07-17T11:59:16.848Z,2.23
2018-07-17T12:01:54.532Z,1.90
2018-07-17T12:04:27.927Z,2.60
2018-07-17T12:07:01.108Z,2.13
2018-07-17T12:09:38.302Z,2.50
2018-07-17T12:12:18.852Z,2.23
2018-07-17T12:14:59.310Z,3.13
2018-07-17T12:17:32.624Z,2.30
2018-07-17T12:20:06.457Z,2.83
2018-07-17T12:22:47.266Z,2.60
2018-07-17T12:25:20.836Z,2.93
2018-07-17T12:27:52.680Z,2.00
2018-07-17T12:30:24.038Z,1.93
2018-07-17T12:32:55.835Z,2.37
2018-07-17T12:35:35.407Z,2.30
2018-07-17T12:38:12.136Z,2.37
2018-07-17T12:40:49.062Z,2.77
2018-07-17T12:43:20.718Z,2.27
2018-07-17T12:45:56.462Z,2.23
2018-07-17T12:48:29.068Z,2.10
2018-07-17T12:51:00.398Z,2.30
2018-07-17T12:53:39.485Z,3.07
2018-07-17T12:56:18.426Z,3.00
2018-07-17T12:58:51.116Z,2.97
2018-07-17T13:01:21.126Z,2.73
2018-07-17T13:03:51.660Z,2.50
2018-07-17T13:06:24.871Z,4.27
2018-07-17T13:09:02.569Z,3.00
2018-07-17T13:11:35.518Z,3.90
2018-07-17T13:14:06.082Z,2.50
2018-07-17T13:16:39.341Z,2.13
2018-07-17T13:19:15.809Z,2.70
2018-07-17T13:21:51.151Z,3.00
2018-07-17T13:24:22.306Z,2.60
2018-07-17T13:27:24.085Z,2.73
2018-07-17T13:29:55.519Z,2.87
2018-07-17T13:32:29.468Z,2.57
2018-07-17T13:35:00.550Z,2.53
2018-07-17T13:37:32.426Z,2.60
2018-07-17T13:40:05.718Z,2.90
2018-07-17T13:42:35.630Z,2.40
2018-07-17T13:45:08.791Z,2.50
2018-07-17T13:47:39.550Z,2.73
2018-07-17T13:50:10.413Z,2.60
2018-07-17T13:52:38.963Z,2.33
2018-07-17T13:55:07.310Z,2.50
2018-07-17T13:57:36.548Z,3.07
2018-07-17T14:00:06.011Z,2.30
2018-07-17T14:02:34.245Z,2.60
2018-07-17T14:05:02.557Z,2.50
2018-07-17T14:07:31.097Z,3.00
2018-07-17T14:09:59.484Z,2.33
2018-07-17T14:12:28.076Z,2.60
2018-07-17T14:14:56.314Z,3.27
2018-07-17T14:17:24.684Z,3.00
2018-07-17T14:19:53.058Z,2.73
2018-07-17T14:22:21.447Z,2.77
2018-07-17T14:24:49.780Z,2.93
2018-07-17T14:27:18.103Z,2.50
2018-07-17T14:29:46.437Z,2.80
2018-07-17T14:32:14.837Z,2.40
2018-07-17T14:34:43.294Z,2.53
2018-07-17T14:37:11.687Z,3.20
2018-07-17T14:39:40.137Z,3.00
2018-07-17T14:42:08.525Z,2.80
2018-07-17T14:44:36.865Z,2.90
2018-07-17T14:47:05.305Z,2.50
2018-07-17T14:49:34.284Z,2.43
2018-07-17T14:52:02.659Z,3.23
2018-07-17T14:54:31.130Z,2.63
2018-07-17T14:56:59.857Z,3.20
2018-07-17T14:59:28.276Z,2.70
2018-07-17T15:01:56.791Z,2.43
2018-07-17T15:04:25.236Z,2.30
2018-07-17T15:06:54.037Z,2.40
2018-07-17T15:09:22.507Z,2.90
2018-07-17T15:11:50.640Z,2.63
2018-07-17T15:14:18.989Z,2.27
2018-07-17T15:16:47.470Z,2.60
2018-07-17T15:19:15.916Z,2.60
2018-07-17T15:21:44.410Z,2.50
2018-07-17T15:24:12.935Z,2.70
2018-07-17T15:26:41.400Z,3.00
2018-07-17T15:29:09.887Z,2.80
2018-07-17T15:31:38.581Z,2.70
2018-07-17T15:34:06.985Z,3.10
2018-07-17T15:36:35.593Z,3.43
2018-07-17T15:39:05.626Z,2.30
2018-07-17T15:41:34.266Z,2.03
2018-07-17T15:44:02.709Z,2.40
2018-07-17T15:46:31.308Z,2.43
2018-07-17T15:49:00.113Z,2.57
2018-07-17T15:51:28.542Z,2.33
2018-07-17T15:53:56.905Z,1.70
2018-07-17T15:56:25.381Z,2.20
2018-07-17T15:58:54.108Z,2.70
2018-07-17T16:01:22.657Z,2.20
2018-07-17T16:03:51.101Z,2.30
2018-07-17T16:06:19.583Z,1.90
2018-07-17T16:08:47.946Z,1.90
2018-07-17T16:11:16.497Z,1.97
2018-07-17T16:13:45.197Z,2.97
2018-07-17T16:16:13.519Z,3.20
2018-07-17T16:18:42.009Z,2.73
2018-07-17T16:21:10.625Z,3.87
2018-07-17T16:23:39.079Z,2.97
2018-07-17T16:26:07.493Z,2.40
2018-07-17T16:28:36.135Z,2.70
2018-07-17T16:31:05.297Z,3.13
2018-07-17T16:33:33.893Z,2.40
2018-07-17T16:36:02.222Z,3.37
2018-07-17T16:38:33.324Z,3.10
2018-07-17T16:41:01.709Z,3.43
2018-07-17T16:43:30.057Z,3.70
2018-07-17T16:45:58.377Z,3.50
2018-07-17T16:48:26.766Z,3.77
2018-07-17T16:50:55.110Z,3.90
2018-07-17T16:53:23.537Z,3.27
2018-07-17T16:55:51.869Z,3.40
2018-07-17T16:58:20.193Z,3.60
2018-07-17T17:00:48.673Z,3.57
2018-07-17T17:03:17.013Z,3.97
2018-07-17T17:05:45.370Z,5.20
2018-07-17T17:08:13.687Z,4.70
2018-07-17T17:10:42.019Z,4.97
2018-07-17T17:13:10.342Z,4.57
2018-07-17T17:15:38.661Z,5.47
2018-07-17T17:18:06.975Z,5.53
2018-07-17T17:20:35.301Z,4.83
2018-07-17T17:23:03.934Z,4.93
2018-07-17T17:25:32.247Z,4.83
2018-07-17T17:28:00.558Z,4.20
2018-07-17T17:30:28.941Z,3.70
2018-07-17T17:32:57.360Z,3.53
2018-07-17T17:35:25.673Z,3.40
2018-07-17T17:37:54.055Z,3.30
2018-07-17T17:40:22.367Z,3.10
2018-07-17T17:42:50.677Z,3.73
2018-07-17T17:45:19.147Z,4.07
2018-07-17T17:47:47.421Z,5.10
2018-07-17T17:50:15.765Z,5.63
2018-07-17T17:52:44.074Z,8.10
2018-07-17T17:55:12.421Z,9.73
2018-07-17T17:57:40.773Z,7.90
2018-07-17T18:00:09.125Z,7.70
2018-07-17T18:02:37.465Z,7.30
2018-07-17T18:05:05.862Z,7.73
2018-07-17T18:07:34.134Z,8.20
2018-07-17T18:10:02.694Z,9.77
2018-07-17T18:12:31.069Z,8.80
2018-07-17T18:14:59.411Z,8.17
2018-07-17T18:17:27.769Z,9.17
2018-07-17T18:19:56.107Z,9.23
2018-07-17T18:22:24.549Z,8.60
2018-07-17T18:24:52.896Z,8.60
2018-07-17T18:27:21.364Z,8.17
2018-07-17T18:29:49.793Z,7.90
2018-07-17T18:32:18.234Z,7.97
2018-07-17T18:34:46.513Z,7.20
2018-07-17T18:37:14.847Z,7.33
2018-07-17T18:39:43.539Z,7.87
2018-07-17T18:42:12.076Z,7.47
2018-07-17T18:44:40.395Z,6.60
2018-07-17T18:47:08.765Z,7.40
2018-07-17T18:49:37.103Z,6.20
2018-07-17T18:52:05.570Z,7.03
2018-07-17T18:54:33.898Z,6.43
2018-07-17T18:57:02.284Z,7.00
2018-07-17T18:59:30.682Z,6.53
2018-07-17T19:04:55.105Z,6.40
2018-07-17T19:16:16.025Z,6.77
2018-07-17T19:19:07.629Z,8.10
2018-07-17T19:21:36.206Z,7.13
2018-07-17T19:24:10.093Z,6.50
2018-07-17T19:26:40.489Z,5.90
2018-07-17T19:29:20.174Z,7.10
2018-07-17T19:40:20.194Z,6.20
2018-07-17T19:42:49.510Z,7.20
2018-07-17T19:45:19.018Z,7.40
2018-07-17T19:47:47.470Z,8.07
2018-07-17T19:50:16.109Z,6.90
2018-07-17T19:52:46.641Z,6.40
2018-07-17T19:58:03.699Z,7.07
2018-07-17T20:00:32.309Z,7.90
2018-07-17T20:03:00.791Z,7.13
2018-07-17T20:05:29.266Z,7.63
2018-07-17T20:07:57.847Z,9.57
2018-07-17T20:10:27.205Z,8.90
2018-07-17T20:13:00.547Z,7.90
2018-07-17T20:18:15.087Z,7.33
2018-07-17T20:20:46.883Z,7.17
2018-07-17T20:23:18.613Z,7.43
2018-07-17T20:25:47.128Z,7.80
2018-07-17T20:28:16.296Z,7.33
2018-07-17T20:30:44.966Z,8.23
2018-07-17T20:33:17.115Z,7.70
2018-07-17T20:35:45.871Z,9.00
2018-07-17T20:38:15.064Z,8.63
2018-07-17T20:40:43.562Z,8.70
2018-07-17T20:43:12.062Z,8.00
2018-07-17T20:45:40.586Z,8.97
2018-07-17T20:48:09.022Z,8.70
2018-07-17T20:50:37.550Z,8.87
2018-07-17T20:53:06.257Z,8.30
2018-07-17T20:55:34.709Z,8.97
2018-07-17T20:58:03.503Z,9.33
2018-07-17T21:00:31.939Z,10.57
2018-07-17T21:03:00.360Z,9.30
2018-07-17T21:05:29.355Z,11.13
2018-07-17T21:07:57.888Z,9.70
2018-07-17T21:10:27.358Z,9.47
2018-07-17T21:12:55.745Z,10.50
2018-07-17T21:15:24.123Z,9.57
2018-07-17T21:17:52.605Z,8.77
2018-07-17T21:20:21.113Z,10.00
2018-07-17T21:22:49.542Z,9.30
2018-07-17T21:25:17.898Z,10.07
2018-07-17T21:27:46.225Z,9.80
2018-07-17T21:30:14.609Z,9.27
2018-07-17T21:32:42.957Z,9.13
2018-07-17T21:35:11.242Z,8.33
2018-07-17T21:37:39.598Z,7.20
2018-07-17T21:40:08.010Z,7.50
2018-07-17T21:42:36.371Z,6.27
2018-07-17T21:45:04.805Z,5.80
2018-07-17T21:47:33.185Z,4.73
2018-07-17T21:50:01.521Z,5.80
2018-07-17T21:52:29.868Z,5.57
2018-07-17T21:54:58.166Z,5.00
2018-07-17T21:57:26.497Z,4.43
2018-07-17T21:59:54.866Z,4.83
2018-07-17T22:02:23.191Z,5.40
2018-07-17T22:05:01.032Z,5.87
2018-07-17T22:07:29.547Z,6.10
2018-07-17T22:09:57.888Z,5.70
2018-07-17T22:12:26.247Z,6.27
2018-07-17T22:14:54.518Z,6.27
2018-07-17T22:17:23.015Z,6.80
2018-07-17T22:19:51.414Z,5.97
2018-07-17T22:22:19.745Z,5.10
2018-07-17T22:24:48.125Z,5.10
2018-07-17T22:27:17.781Z,6.03
2018-07-17T22:29:46.740Z,5.00
2018-07-17T22:32:15.979Z,5.07
2018-07-17T22:34:45.491Z,5.40
2018-07-17T22:37:14.239Z,4.10
2018-07-17T22:39:42.867Z,4.77
2018-07-17T22:42:11.468Z,4.30
2018-07-17T22:44:40.095Z,4.17
2018-07-17T22:47:08.500Z,3.30
2018-07-17T22:49:37.069Z,3.90
2018-07-17T22:52:05.674Z,4.20
2018-07-17T22:54:34.150Z,3.87
2018-07-17T22:57:02.796Z,3.93
2018-07-17T22:59:31.418Z,4.23
2018-07-17T23:02:00.028Z,4.37
2018-07-17T23:04:28.421Z,3.80
2018-07-17T23:06:56.917Z,4.53
2018-07-17T23:09:25.649Z,4.30
2018-07-17T23:11:54.169Z,4.63
2018-07-17T23:14:22.777Z,4.30
2018-07-17T23:16:51.471Z,5.13
2018-07-17T23:19:20.166Z,4.60
2018-07-17T23:21:53.421Z,4.90
2018-07-17T23:24:22.076Z,4.93
2018-07-17T23:26:50.810Z,5.73
2018-07-17T23:29:19.666Z,5.50
2018-07-17T23:31:48.391Z,4.83
2018-07-17T23:34:17.139Z,5.17
2018-07-17T23:36:45.798Z,5.10
2018-07-17T23:39:14.394Z,5.47
2018-07-17T23:41:42.957Z,4.70
2018-07-17T23:44:11.648Z,5.50
2018-07-17T23:46:40.402Z,5.57
2018-07-17T23:49:12.977Z,4.83
2018-07-17T23:51:41.738Z,4.97
2018-07-17T23:54:14.563Z,5.73
2018-07-17T23:56:43.230Z,4.80
2018-07-17T23:59:11.857Z,5.80
